createdAt,value
2018-12-20T00:01:32.594Z,3.58
2018-12-20T00:03:58.364Z,3.59
2018-12-20T00:06:24.180Z,3.59
2018-12-20T00:08:49.996Z,3.60
2018-12-20T00:11:15.731Z,3.61
2018-12-20T00:13:41.659Z,3.60
2018-12-20T00:16:07.417Z,3.57
2018-12-20T00:18:33.448Z,3.53
2018-12-20T00:20:59.354Z,3.48
2018-12-20T00:23:25.187Z,3.45
2018-12-20T00:25:51.017Z,3.41
2018-12-20T00:28:16.835Z,3.34
2018-12-20T00:30:42.781Z,3.30
2018-12-20T00:33:08.594Z,3.23
2018-12-20T00:35:34.322Z,3.23
2018-12-20T00:38:00.053Z,3.22
2018-12-20T00:40:25.865Z,3.20
2018-12-20T00:42:51.622Z,3.18
2018-12-20T00:45:17.464Z,3.17
2018-12-20T00:47:43.345Z,3.17
2018-12-20T00:50:09.231Z,3.18
2018-12-20T00:52:35.229Z,3.16
2018-12-20T00:55:01.205Z,3.13
2018-12-20T00:57:27.129Z,3.10
2018-12-20T00:59:53.078Z,3.05
2018-12-20T01:02:19.029Z,3.02
2018-12-20T01:04:44.808Z,3.02
2018-12-20T01:07:10.647Z,2.98
2018-12-20T01:09:36.604Z,2.98
2018-12-20T01:12:02.472Z,3.01
2018-12-20T01:14:28.200Z,3.02
2018-12-20T01:16:54.116Z,3.04
2018-12-20T01:19:19.960Z,3.03
2018-12-20T01:21:45.909Z,3.05
2018-12-20T01:24:11.850Z,3.05
2018-12-20T01:26:37.667Z,3.07
2018-12-20T01:29:03.418Z,3.09
2018-12-20T01:31:29.265Z,3.07
2018-12-20T01:33:55.323Z,3.10
2018-12-20T01:36:21.351Z,3.11
2018-12-20T01:38:47.587Z,3.11
2018-12-20T01:41:13.553Z,3.11
2018-12-20T01:43:39.659Z,3.11
2018-12-20T01:46:05.605Z,3.13
2018-12-20T01:48:31.439Z,3.14
2018-12-20T01:50:57.272Z,3.15
2018-12-20T01:53:23.105Z,3.19
2018-12-20T01:55:49.097Z,3.18
2018-12-20T01:58:14.882Z,3.18
2018-12-20T02:00:40.621Z,3.20
2018-12-20T02:03:06.455Z,3.21
2018-12-20T02:05:32.171Z,3.21
2018-12-20T02:07:58.017Z,3.26
2018-12-20T02:10:23.883Z,3.25
2018-12-20T02:12:49.812Z,3.29
2018-12-20T02:15:15.614Z,3.27
2018-12-20T02:17:41.611Z,3.28
2018-12-20T02:20:07.484Z,3.27
2018-12-20T02:22:33.329Z,3.29
2018-12-20T02:24:59.276Z,3.29
2018-12-20T02:27:25.108Z,3.28
2018-12-20T02:29:51.099Z,3.29
2018-12-20T02:32:16.971Z,3.29
2018-12-20T02:34:42.725Z,3.28
2018-12-20T02:37:08.727Z,3.28
2018-12-20T02:39:34.573Z,3.29
2018-12-20T02:42:00.682Z,3.27
2018-12-20T02:44:26.810Z,3.25
2018-12-20T02:46:52.806Z,3.22
2018-12-20T02:49:18.986Z,3.21
2018-12-20T02:51:45.526Z,3.23
2018-12-20T02:54:11.862Z,3.25
2018-12-20T02:56:38.007Z,3.21
2018-12-20T02:59:04.251Z,3.25
2018-12-20T03:01:30.749Z,3.23
2018-12-20T03:03:58.113Z,3.21
2018-12-20T03:06:25.319Z,3.23
2018-12-20T03:08:51.342Z,3.22
2018-12-20T03:11:17.175Z,3.22
2018-12-20T03:13:43.084Z,3.21
2018-12-20T03:16:08.969Z,3.20
2018-12-20T03:18:34.787Z,3.18
2018-12-20T03:21:00.596Z,3.20
2018-12-20T03:23:26.687Z,3.19
2018-12-20T03:25:52.658Z,3.18
2018-12-20T03:28:18.687Z,3.17
2018-12-20T03:30:44.519Z,3.18
2018-12-20T03:33:10.727Z,3.16
2018-12-20T03:35:36.824Z,3.19
2018-12-20T03:38:02.863Z,3.21
2018-12-20T03:40:28.698Z,3.25
2018-12-20T03:42:54.568Z,3.26
2018-12-20T03:45:28.385Z,3.28
2018-12-20T03:47:48.406Z,3.25
2018-12-20T03:50:14.615Z,3.26
2018-12-20T03:52:40.602Z,3.23
2018-12-20T03:55:06.592Z,3.27
2018-12-20T03:57:32.525Z,3.30
2018-12-20T03:59:58.256Z,3.33
2018-12-20T04:02:24.285Z,3.32
2018-12-20T04:04:50.022Z,3.28
2018-12-20T04:07:15.866Z,3.20
2018-12-20T04:09:41.773Z,3.17
2018-12-20T04:12:07.497Z,3.16
2018-12-20T04:14:33.393Z,3.11
2018-12-20T04:16:59.275Z,3.09
2018-12-20T04:19:25.097Z,3.10
2018-12-20T04:21:51.284Z,3.09
2018-12-20T04:24:17.331Z,3.07
2018-12-20T04:26:43.131Z,3.03
2018-12-20T04:29:09.027Z,3.03
2018-12-20T04:31:35.038Z,3.03
2018-12-20T04:34:00.949Z,3.06
2018-12-20T04:36:26.882Z,3.12
2018-12-20T04:38:52.647Z,3.13
2018-12-20T04:41:18.474Z,3.14
2018-12-20T04:43:44.207Z,3.13
2018-12-20T04:46:10.168Z,3.13
2018-12-20T04:48:36.133Z,3.19
2018-12-20T04:51:02.064Z,3.20
2018-12-20T04:53:27.998Z,3.23
2018-12-20T04:55:54.024Z,3.25
2018-12-20T04:58:19.887Z,3.25
2018-12-20T05:00:46.242Z,3.26
2018-12-20T05:03:12.302Z,3.27
2018-12-20T05:05:38.058Z,3.28
2018-12-20T05:08:04.101Z,3.29
2018-12-20T05:10:29.976Z,3.32
2018-12-20T05:12:55.772Z,3.37
2018-12-20T05:15:21.770Z,3.37
2018-12-20T05:17:47.547Z,3.38
2018-12-20T05:20:13.578Z,3.40
2018-12-20T05:22:39.487Z,3.42
2018-12-20T05:25:05.704Z,3.42
2018-12-20T05:27:31.830Z,3.43
2018-12-20T05:29:57.678Z,3.45
2018-12-20T05:32:30.440Z,3.45
2018-12-20T05:34:56.340Z,3.40
2018-12-20T05:37:22.171Z,3.37
2018-12-20T05:39:48.184Z,3.32
2018-12-20T05:42:13.989Z,3.27
2018-12-20T05:44:39.768Z,3.27
2018-12-20T05:47:05.630Z,3.28
2018-12-20T05:49:31.479Z,3.25
2018-12-20T05:51:57.211Z,3.22
2018-12-20T05:54:23.015Z,3.22
2018-12-20T05:56:49.052Z,3.19
2018-12-20T05:59:15.028Z,3.18
2018-12-20T06:01:41.171Z,3.16
2018-12-20T06:04:07.307Z,3.18
2018-12-20T06:06:33.226Z,3.17
2018-12-20T06:08:59.091Z,3.19
2018-12-20T06:11:25.002Z,3.23
2018-12-20T06:13:50.814Z,3.26
2018-12-20T06:16:16.721Z,3.25
2018-12-20T06:18:42.762Z,3.23
2018-12-20T06:21:08.695Z,3.28
2018-12-20T06:23:34.407Z,3.26
2018-12-20T06:26:00.126Z,3.26
2018-12-20T06:28:25.846Z,3.26
2018-12-20T06:30:51.587Z,3.27
2018-12-20T06:33:17.299Z,3.23
2018-12-20T06:35:43.131Z,3.25
2018-12-20T06:38:08.838Z,3.25
2018-12-20T06:40:34.557Z,3.21
2018-12-20T06:43:00.363Z,3.18
2018-12-20T06:45:26.094Z,3.15
2018-12-20T06:47:51.923Z,3.14
2018-12-20T06:50:17.743Z,3.15
2018-12-20T06:52:43.462Z,3.17
2018-12-20T06:55:09.398Z,3.16
2018-12-20T06:57:35.115Z,3.19
2018-12-20T07:00:01.056Z,3.22
2018-12-20T07:02:26.774Z,3.26
2018-12-20T07:04:52.579Z,3.29
2018-12-20T07:07:18.406Z,3.29
2018-12-20T07:09:44.111Z,3.31
2018-12-20T07:12:09.833Z,3.33
2018-12-20T07:14:35.642Z,3.35
2018-12-20T07:17:01.366Z,3.35
2018-12-20T07:19:27.089Z,3.37
2018-12-20T07:21:52.811Z,3.39
2018-12-20T07:24:18.626Z,3.41
2018-12-20T07:26:44.346Z,3.42
2018-12-20T07:29:10.074Z,3.45
2018-12-20T07:31:35.799Z,3.44
2018-12-20T07:34:01.506Z,3.44
2018-12-20T07:36:27.239Z,3.42
2018-12-20T07:38:52.951Z,3.44
2018-12-20T07:41:18.666Z,3.44
2018-12-20T07:43:44.383Z,3.44
2018-12-20T07:46:10.344Z,3.45
2018-12-20T07:48:36.174Z,3.47
2018-12-20T07:51:03.609Z,3.47
2018-12-20T07:53:29.634Z,3.48
2018-12-20T07:55:55.374Z,3.50
2018-12-20T07:58:21.111Z,3.52
2018-12-20T08:00:46.844Z,3.53
2018-12-20T08:03:12.563Z,3.57
2018-12-20T08:05:38.378Z,3.58
2018-12-20T08:08:04.107Z,3.61
2018-12-20T08:10:29.937Z,3.64
2018-12-20T08:12:55.658Z,3.64
2018-12-20T08:15:21.378Z,3.67
2018-12-20T08:17:47.211Z,3.66
2018-12-20T08:20:12.922Z,3.70
2018-12-20T08:22:38.638Z,3.73
2018-12-20T08:25:04.471Z,3.75
2018-12-20T08:27:30.178Z,3.78
2018-12-20T08:29:55.903Z,3.79
2018-12-20T08:32:21.620Z,3.78
2018-12-20T08:34:47.343Z,3.81
2018-12-20T08:37:13.160Z,3.83
2018-12-20T08:39:38.991Z,3.85
2018-12-20T08:42:04.703Z,3.85
2018-12-20T08:44:30.430Z,3.88
2018-12-20T08:46:56.146Z,3.91
2018-12-20T08:49:21.968Z,3.94
2018-12-20T08:51:49.159Z,3.99
2018-12-20T08:54:15.319Z,4.02
2018-12-20T08:56:41.164Z,4.04
2018-12-20T08:59:06.886Z,4.06
2018-12-20T09:01:32.593Z,4.09
2018-12-20T09:03:58.312Z,4.11
2018-12-20T09:06:24.150Z,4.12
2018-12-20T09:08:49.890Z,4.15
2018-12-20T09:11:15.617Z,4.16
2018-12-20T09:13:41.439Z,4.19
2018-12-20T09:16:07.163Z,4.21
2018-12-20T09:18:33.295Z,4.22
2018-12-20T09:20:59.025Z,4.23
2018-12-20T09:23:24.822Z,4.21
2018-12-20T09:25:50.579Z,4.22
2018-12-20T09:28:16.298Z,4.21
2018-12-20T09:30:42.014Z,4.25
2018-12-20T09:33:07.840Z,4.27
2018-12-20T09:35:33.559Z,4.28
2018-12-20T09:38:01.031Z,4.30
2018-12-20T09:40:27.027Z,4.33
2018-12-20T09:42:52.792Z,4.36
2018-12-20T09:45:18.691Z,4.36
2018-12-20T09:47:52.250Z,4.37
2018-12-20T09:50:18.066Z,4.36
2018-12-20T09:52:43.793Z,4.39
2018-12-20T09:55:09.511Z,4.40
2018-12-20T09:57:35.232Z,4.40
2018-12-20T10:00:01.082Z,4.40
2018-12-20T10:02:26.799Z,4.43
2018-12-20T10:04:52.523Z,4.42
2018-12-20T10:07:18.251Z,4.43
2018-12-20T10:09:44.079Z,4.45
2018-12-20T10:12:09.905Z,4.47
2018-12-20T10:14:35.622Z,4.42
2018-12-20T10:17:01.342Z,4.42
2018-12-20T10:19:27.203Z,4.44
2018-12-20T10:21:52.932Z,4.40
2018-12-20T10:24:18.642Z,4.41
2018-12-20T10:26:44.378Z,4.44
2018-12-20T10:29:10.112Z,4.47
2018-12-20T10:31:35.926Z,4.50
2018-12-20T10:34:01.844Z,4.53
2018-12-20T10:36:27.591Z,4.50
2018-12-20T10:38:53.417Z,4.51
2018-12-20T10:41:19.135Z,4.51
2018-12-20T10:43:44.939Z,4.54
2018-12-20T10:46:10.674Z,4.59
2018-12-20T10:48:36.426Z,4.61
2018-12-20T10:51:02.262Z,4.66
2018-12-20T10:53:27.974Z,4.72
2018-12-20T10:55:53.708Z,4.78
2018-12-20T10:58:21.450Z,4.84
2018-12-20T11:00:53.411Z,4.80
2018-12-20T11:03:25.303Z,4.74
2018-12-20T11:05:57.046Z,4.71
2018-12-20T11:08:23.302Z,4.71
2018-12-20T11:10:51.146Z,4.69
2018-12-20T11:13:23.054Z,4.70
2018-12-20T11:15:48.766Z,4.73
2018-12-20T11:18:14.498Z,4.78
2018-12-20T11:20:40.218Z,4.84
2018-12-20T11:23:06.063Z,4.89
2018-12-20T11:25:31.792Z,4.94
2018-12-20T11:27:57.643Z,4.96
2018-12-20T11:30:23.367Z,4.97
2018-12-20T11:32:49.200Z,4.96
2018-12-20T11:35:14.921Z,4.93
2018-12-20T11:37:40.652Z,4.94
2018-12-20T11:40:06.574Z,4.97
2018-12-20T11:42:32.292Z,5.03
2018-12-20T11:44:58.003Z,5.06
2018-12-20T11:47:26.794Z,5.05
2018-12-20T11:49:52.514Z,5.05
2018-12-20T11:52:18.235Z,5.06
2018-12-20T11:54:44.046Z,5.06
2018-12-20T11:57:09.778Z,5.06
2018-12-20T11:59:35.488Z,5.10
2018-12-20T12:02:01.322Z,5.09
2018-12-20T12:04:27.030Z,5.10
2018-12-20T12:06:52.751Z,5.12
2018-12-20T12:09:18.464Z,5.16
2018-12-20T12:11:44.191Z,5.23
2018-12-20T12:14:09.899Z,5.24
2018-12-20T12:16:35.602Z,5.21
2018-12-20T12:19:01.323Z,5.24
2018-12-20T12:21:27.147Z,5.23
2018-12-20T12:23:52.883Z,5.23
2018-12-20T12:26:18.594Z,5.21
2018-12-20T12:28:44.323Z,5.19
2018-12-20T12:31:10.030Z,5.28
2018-12-20T12:33:35.750Z,5.30
2018-12-20T12:36:01.455Z,5.28
2018-12-20T12:38:27.180Z,5.27
2018-12-20T12:40:52.891Z,5.23
2018-12-20T12:43:18.733Z,5.21
2018-12-20T12:45:44.446Z,5.23
2018-12-20T12:48:10.275Z,5.24
2018-12-20T12:50:36.091Z,5.32
2018-12-20T12:53:01.808Z,5.29
2018-12-20T12:55:27.522Z,5.30
2018-12-20T12:57:53.242Z,5.28
2018-12-20T13:00:20.094Z,5.27
2018-12-20T13:02:46.570Z,5.24
2018-12-20T13:05:12.394Z,5.28
2018-12-20T13:10:10.648Z,5.30
2018-12-20T13:12:36.360Z,5.40
2018-12-20T13:15:04.812Z,5.43
2018-12-20T13:17:30.532Z,5.44
2018-12-20T13:19:56.259Z,5.47
2018-12-20T13:22:21.967Z,5.49
2018-12-20T13:24:47.794Z,5.49
2018-12-20T13:27:13.516Z,5.50
2018-12-20T13:29:39.238Z,5.45
2018-12-20T13:32:04.955Z,5.43
2018-12-20T13:34:30.675Z,5.44
2018-12-20T13:36:56.384Z,5.46
2018-12-20T13:39:22.111Z,5.48
2018-12-20T13:41:47.911Z,5.48
2018-12-20T13:44:13.647Z,5.52
2018-12-20T13:46:39.379Z,5.56
2018-12-20T13:49:05.216Z,5.55
2018-12-20T13:51:30.941Z,5.56
2018-12-20T13:53:56.767Z,5.55
2018-12-20T13:56:22.587Z,5.56
2018-12-20T13:58:48.534Z,5.53
2018-12-20T14:01:14.340Z,5.53
2018-12-20T14:03:40.084Z,5.54
2018-12-20T14:06:06.002Z,5.55
2018-12-20T14:08:31.706Z,5.55
2018-12-20T14:10:57.439Z,5.53
2018-12-20T14:13:23.262Z,5.51
2018-12-20T14:15:48.970Z,5.49
2018-12-20T14:18:14.670Z,5.52
2018-12-20T14:20:40.491Z,5.51
2018-12-20T14:23:06.298Z,5.50
2018-12-20T14:25:32.770Z,5.50
2018-12-20T14:27:58.595Z,5.51
2018-12-20T14:30:24.327Z,5.49
2018-12-20T14:32:50.146Z,5.50
2018-12-20T14:35:15.978Z,5.49
2018-12-20T14:37:41.681Z,5.48
2018-12-20T14:40:07.498Z,5.47
2018-12-20T14:42:33.210Z,5.47
2018-12-20T14:44:58.943Z,5.47
2018-12-20T14:47:24.678Z,5.49
2018-12-20T14:49:50.715Z,5.48
2018-12-20T14:52:16.531Z,5.51
2018-12-20T14:54:42.274Z,5.49
2018-12-20T14:57:07.987Z,5.47
2018-12-20T14:59:33.686Z,5.47
2018-12-20T15:01:59.406Z,5.47
2018-12-20T15:04:25.119Z,5.47
2018-12-20T15:06:50.843Z,5.47
2018-12-20T15:09:16.560Z,5.46
2018-12-20T15:11:42.395Z,5.45
2018-12-20T15:14:15.086Z,5.46
2018-12-20T15:16:47.995Z,5.45
2018-12-20T15:19:13.712Z,5.47
2018-12-20T15:21:39.496Z,5.50
2018-12-20T15:24:05.254Z,5.48
2018-12-20T15:26:30.971Z,5.48
2018-12-20T15:28:56.803Z,5.48
2018-12-20T15:31:22.530Z,5.48
2018-12-20T15:33:48.354Z,5.47
2018-12-20T15:36:14.216Z,5.47
2018-12-20T15:38:39.930Z,5.44
2018-12-20T15:41:12.680Z,5.40
2018-12-20T15:43:38.404Z,5.35
2018-12-20T15:46:04.223Z,5.30
2018-12-20T15:48:30.054Z,5.27
2018-12-20T15:50:55.998Z,5.23
2018-12-20T15:53:21.715Z,5.23
2018-12-20T15:55:47.538Z,5.20
2018-12-20T15:58:13.267Z,5.20
2018-12-20T16:00:39.079Z,5.18
2018-12-20T16:03:04.794Z,5.17
2018-12-20T16:05:30.522Z,5.19
2018-12-20T16:07:58.262Z,5.22
2018-12-20T16:10:23.987Z,5.26
2018-12-20T16:12:49.803Z,5.26
2018-12-20T16:15:15.528Z,5.25
2018-12-20T16:17:41.262Z,5.25
2018-12-20T16:20:07.073Z,5.26
2018-12-20T16:22:32.907Z,5.24
2018-12-20T16:24:58.623Z,5.25
2018-12-20T16:27:24.456Z,5.35
2018-12-20T16:29:50.386Z,5.37
2018-12-20T16:32:16.122Z,5.38
2018-12-20T16:34:41.838Z,5.37
2018-12-20T16:37:07.562Z,5.38
2018-12-20T16:39:33.278Z,5.38
2018-12-20T16:41:59.014Z,5.35
2018-12-20T16:44:24.746Z,5.37
2018-12-20T16:46:50.474Z,5.36
2018-12-20T16:49:16.218Z,5.38
2018-12-20T16:51:41.940Z,5.38
2018-12-20T16:54:07.930Z,5.36
2018-12-20T16:56:33.851Z,5.36
2018-12-20T16:58:59.675Z,5.37
2018-12-20T17:01:25.550Z,5.36
2018-12-20T17:03:51.282Z,5.33
2018-12-20T17:06:16.997Z,5.37
2018-12-20T17:08:48.084Z,5.36
2018-12-20T17:11:10.459Z,5.34
2018-12-20T17:13:36.189Z,5.32
2018-12-20T17:16:01.943Z,5.26
2018-12-20T17:18:28.089Z,5.28
2018-12-20T17:20:53.902Z,5.26
2018-12-20T17:23:19.610Z,5.26
2018-12-20T17:25:45.340Z,5.27
2018-12-20T17:28:11.517Z,5.27
2018-12-20T17:30:37.414Z,5.28
2018-12-20T17:33:03.252Z,5.27
2018-12-20T17:35:29.191Z,5.28
2018-12-20T17:37:54.945Z,5.30
2018-12-20T17:40:20.714Z,5.30
2018-12-20T17:42:47.462Z,5.28
2018-12-20T17:45:13.239Z,5.28
2018-12-20T17:47:39.225Z,5.32
2018-12-20T17:50:05.777Z,5.28
2018-12-20T17:52:31.494Z,5.32
2018-12-20T17:54:57.315Z,5.33
2018-12-20T17:57:23.071Z,5.35
2018-12-20T17:59:48.904Z,5.35
2018-12-20T18:02:14.734Z,5.35
2018-12-20T18:04:40.711Z,5.35
2018-12-20T18:07:06.461Z,5.34
2018-12-20T18:09:32.195Z,5.05
2018-12-20T18:11:58.031Z,5.31
2018-12-20T18:14:23.824Z,5.28
2018-12-20T18:16:49.654Z,5.28
2018-12-20T18:19:15.376Z,5.24
2018-12-20T18:21:41.127Z,5.11
2018-12-20T18:24:06.923Z,5.10
2018-12-20T18:26:32.686Z,5.07
2018-12-20T18:28:58.515Z,5.01
2018-12-20T18:31:24.260Z,4.98
2018-12-20T18:33:50.118Z,4.98
2018-12-20T18:36:16.064Z,4.97
2018-12-20T18:38:41.911Z,4.98
2018-12-20T18:41:07.731Z,4.99
2018-12-20T18:43:33.442Z,4.98
2018-12-20T18:45:59.255Z,4.92
2018-12-20T18:48:25.045Z,4.87
2018-12-20T18:50:50.796Z,4.82
2018-12-20T18:53:16.507Z,4.76
2018-12-20T18:55:42.236Z,4.72
2018-12-20T18:58:08.055Z,4.68
2018-12-20T19:00:35.951Z,4.63
2018-12-20T19:03:01.788Z,4.59
2018-12-20T19:05:27.516Z,4.57
2018-12-20T19:07:53.377Z,4.63
2018-12-20T19:10:19.101Z,4.68
2018-12-20T19:12:44.826Z,4.74
2018-12-20T19:15:10.638Z,4.78
2018-12-20T19:17:36.462Z,4.83
2018-12-20T19:20:02.791Z,4.80
2018-12-20T19:22:28.655Z,4.78
2018-12-20T19:24:54.383Z,4.80
2018-12-20T19:27:20.227Z,4.80
2018-12-20T19:29:45.948Z,4.80
2018-12-20T19:32:11.690Z,4.85
2018-12-20T19:34:37.614Z,4.86
2018-12-20T19:37:03.435Z,4.88
2018-12-20T19:39:29.263Z,4.88
2018-12-20T19:41:57.002Z,4.84
2018-12-20T19:44:22.729Z,4.81
2018-12-20T19:46:48.527Z,4.82
2018-12-20T19:49:14.243Z,4.80
2018-12-20T19:51:39.973Z,4.83
2018-12-20T19:54:05.704Z,4.83
2018-12-20T19:56:31.407Z,4.87
2018-12-20T19:58:57.135Z,4.87
2018-12-20T20:01:22.856Z,4.88
2018-12-20T20:03:48.690Z,4.87
2018-12-20T20:06:14.410Z,4.86
2018-12-20T20:08:40.234Z,4.87
2018-12-20T20:11:05.946Z,4.87
2018-12-20T20:13:31.670Z,4.90
2018-12-20T20:15:57.387Z,4.90
2018-12-20T20:18:23.118Z,4.90
2018-12-20T20:20:48.843Z,4.90
2018-12-20T20:23:14.662Z,4.90
2018-12-20T20:25:40.371Z,4.88
2018-12-20T20:28:06.210Z,4.88
2018-12-20T20:30:32.140Z,4.94
2018-12-20T20:32:57.866Z,4.94
2018-12-20T20:35:23.681Z,4.96
2018-12-20T20:37:49.506Z,4.95
2018-12-20T20:40:15.223Z,4.95
2018-12-20T20:42:40.934Z,4.96
2018-12-20T20:45:06.854Z,4.97
2018-12-20T20:47:32.574Z,4.95
2018-12-20T20:49:58.282Z,4.94
2018-12-20T20:52:24.015Z,4.92
2018-12-20T20:54:49.851Z,4.92
2018-12-20T20:57:15.678Z,4.94
2018-12-20T20:59:41.488Z,4.97
2018-12-20T21:02:07.212Z,5.00
2018-12-20T21:04:32.946Z,5.02
2018-12-20T21:06:58.767Z,5.00
2018-12-20T21:09:24.507Z,5.04
2018-12-20T21:11:50.314Z,5.03
2018-12-20T21:14:16.034Z,5.03
2018-12-20T21:16:41.847Z,5.01
2018-12-20T21:19:07.562Z,4.97
2018-12-20T21:21:33.277Z,4.97
2018-12-20T21:23:59.002Z,5.02
2018-12-20T21:26:24.814Z,5.03
2018-12-20T21:28:50.634Z,5.04
2018-12-20T21:31:16.367Z,5.03
2018-12-20T21:33:42.093Z,5.07
2018-12-20T21:36:07.816Z,5.07
2018-12-20T21:38:33.551Z,5.05
2018-12-20T21:40:59.404Z,5.07
2018-12-20T21:43:25.142Z,5.08
2018-12-20T21:45:50.967Z,5.09
2018-12-20T21:48:16.810Z,5.07
2018-12-20T21:50:49.571Z,5.11
2018-12-20T21:53:15.301Z,5.12
2018-12-20T21:55:41.022Z,5.15
2018-12-20T21:58:06.762Z,5.14
2018-12-20T22:00:32.483Z,5.16
2018-12-20T22:02:58.225Z,5.17
2018-12-20T22:05:24.057Z,5.18
2018-12-20T22:07:49.770Z,5.15
2018-12-20T22:10:15.491Z,5.18
2018-12-20T22:12:41.211Z,5.19
2018-12-20T22:15:07.038Z,5.23
2018-12-20T22:17:32.855Z,5.20
2018-12-20T22:19:58.958Z,5.23
2018-12-20T22:22:24.931Z,5.23
2018-12-20T22:24:50.665Z,5.24
2018-12-20T22:27:16.591Z,5.27
2018-12-20T22:29:47.202Z,5.26
2018-12-20T22:32:14.603Z,5.25
2018-12-20T22:34:40.722Z,5.24
2018-12-20T22:37:06.462Z,5.25
2018-12-20T22:39:33.012Z,5.25
2018-12-20T22:41:59.125Z,5.24
2018-12-20T22:44:24.863Z,5.25
2018-12-20T22:46:50.601Z,5.25
2018-12-20T22:49:16.329Z,5.27
2018-12-20T22:51:42.482Z,5.27
2018-12-20T22:54:08.518Z,5.25
2018-12-20T22:56:34.627Z,5.30
2018-12-20T22:59:00.704Z,5.30
2018-12-20T23:01:26.531Z,5.31
2018-12-20T23:03:52.398Z,5.31
2018-12-20T23:06:18.419Z,5.30
2018-12-20T23:08:44.135Z,5.33
2018-12-20T23:11:09.958Z,5.33
2018-12-20T23:13:36.052Z,5.33
2018-12-20T23:16:02.233Z,5.35
2018-12-20T23:18:28.452Z,5.35
2018-12-20T23:20:54.501Z,5.40
2018-12-20T23:23:20.573Z,5.41
2018-12-20T23:25:46.746Z,5.43
2018-12-20T23:28:12.479Z,5.45
2018-12-20T23:30:38.214Z,5.44
2018-12-20T23:33:03.918Z,5.46
2018-12-20T23:35:29.647Z,5.48
2018-12-20T23:37:55.463Z,5.47
2018-12-20T23:40:21.204Z,5.49
2018-12-20T23:42:46.930Z,5.48
2018-12-20T23:45:12.670Z,5.51
2018-12-20T23:47:38.687Z,5.52
2018-12-20T23:50:04.823Z,5.51
2018-12-20T23:52:33.496Z,5.49
2018-12-20T23:54:59.322Z,5.52
2018-12-20T23:57:25.158Z,5.51
2018-12-20T23:59:50.874Z,5.55
